Time;durP1;ratioP1;P1;durP2;ratioP2;P2;SDS_P1;SDS_P2;PMS_P1;PMS_P2;Temp;Humidity;BMP_temperature;BMP_pressure;BME280_temperature;BME280_humidity;BME280_pressure;Samples;Min_cycle;Max_cycle;Signal;HPM_P1;HPM_P2
2022/03/22 00:00:57;;;;;;;;;;;;;;;25.07;34.60;95356.06;4970481;28;8800;-62
2022/03/22 00:03:26;;;;;;;;;;;;;;;25.05;34.13;95353.78;4967946;28;9732;-62
2022/03/22 00:05:53;;;;;;;;;;;;;;;25.05;34.15;95347.53;4954213;28;9050;-62
2022/03/22 00:08:19;;;;;;;;;;;;;;;25.07;34.05;95361.56;4936760;28;9251;-62
2022/03/22 00:10:48;;;;;;;;;;;;;;;25.07;34.62;95362.31;4952334;28;9270;-62
2022/03/22 00:13:16;;;;;;;;;;;;;;;25.04;33.81;95359.75;4968714;28;7273;-62
2022/03/22 00:15:42;;;;;;;;;;;;;;;25.04;34.01;95368.78;4957156;28;9058;-62
2022/03/22 00:18:08;;;;;;;;;;;;;;;25.03;33.91;95367.28;4966357;28;8323;-62
2022/03/22 00:20:44;;;;;;;;;;;;;;;25.03;33.94;95367.28;4961954;28;9078;-62
2022/03/22 00:23:18;;;;;;;;;;;;;;;25.03;34.18;95361.78;4938674;28;9413;-62
2022/03/22 00:25:45;;;;;;;;;;;;;;;25.03;33.56;95363.78;4943744;28;7293;-62
2022/03/22 00:28:13;;;;;;;;;;;;;;;25.01;34.04;95349.75;4954843;28;9405;-62
2022/03/22 00:30:43;;;;;;;;;;;;;;;25.01;34.23;95358.00;4957088;28;9806;-62
2022/03/22 00:33:09;;;;;;;;;;;;;;;25.01;33.63;95355.97;4956355;28;7943;-62
2022/03/22 00:35:38;;;;;;;;;;;;;;;25.01;34.02;95352.50;4953211;28;9179;-62
2022/03/22 00:38:20;;;;;;;;;;;;;;;25.00;34.24;95362.75;4957193;28;7405;-62
2022/03/22 00:40:47;;;;;;;;;;;;;;;25.01;34.09;95358.72;4960412;28;7903;-62
2022/03/22 00:43:19;;;;;;;;;;;;;;;24.99;34.09;95354.97;4956625;28;7674;-62
2022/03/22 00:45:51;;;;;;;;;;;;;;;24.96;33.63;95351.19;4958372;28;9086;-62
2022/03/22 00:48:19;;;;;;;;;;;;;;;24.96;33.81;95353.94;4954920;28;7568;-63
2022/03/22 00:50:47;;;;;;;;;;;;;;;24.96;33.88;95344.91;4963466;28;7070;-62
2022/03/22 00:53:18;;;;;;;;;;;;;;;24.97;33.83;95357.47;4948787;28;7276;-62
2022/03/22 00:55:45;;;;;;;;;;;;;;;24.97;33.96;95351.94;4968621;28;7492;-62
2022/03/22 00:58:11;;;;;;;;;;;;;;;24.94;34.16;95352.91;4959576;28;9103;-62
2022/03/22 01:00:38;;;;;;;;;;;;;;;24.96;33.78;95358.69;4967743;28;9217;-62
2022/03/22 01:03:05;;;;;;;;;;;;;;;24.95;33.75;95354.41;4951532;28;9259;-62
2022/03/22 01:05:32;;;;;;;;;;;;;;;24.93;33.52;95356.88;4958870;28;7297;-62
2022/03/22 01:08:05;;;;;;;;;;;;;;;24.94;33.91;95352.91;4956614;28;9512;-62
2022/03/22 01:10:34;;;;;;;;;;;;;;;24.94;33.92;95352.91;4975875;28;9160;-62
2022/03/22 01:13:00;;;;;;;;;;;;;;;24.93;33.63;95348.63;4952895;28;9074;-63
2022/03/22 01:15:33;;;;;;;;;;;;;;;24.92;33.57;95350.66;4945700;28;9509;-62
2022/03/22 01:18:06;;;;;;;;;;;;;;;24.91;33.50;95340.88;4952087;28;7211;-62
2022/03/22 01:20:46;;;;;;;;;;;;;;;24.91;34.48;95351.09;4969239;28;6999;-62
2022/03/22 01:23:12;;;;;;;;;;;;;;;24.89;33.76;95348.09;4955916;28;7346;-62
2022/03/22 01:25:43;;;;;;;;;;;;;;;24.90;33.71;95342.13;4956111;28;9089;-62
2022/03/22 01:28:23;;;;;;;;;;;;;;;24.90;33.66;95341.34;4958985;28;7265;-62
2022/03/22 01:30:50;;;;;;;;;;;;;;;24.89;33.60;95334.31;4951691;28;9958;-62
2022/03/22 01:33:19;;;;;;;;;;;;;;;24.87;34.02;95336.81;4973470;28;7874;-62
2022/03/22 01:35:54;;;;;;;;;;;;;;;24.86;33.43;95341.56;4968326;28;7928;-62
2022/03/22 01:38:23;;;;;;;;;;;;;;;24.87;33.72;95339.56;4956148;28;7131;-62
2022/03/22 01:41:04;;;;;;;;;;;;;;;24.84;34.09;95337.78;4957340;28;7290;-62
2022/03/22 01:43:31;;;;;;;;;;;;;;;24.83;33.56;95337.03;4949004;28;9693;-62
2022/03/22 01:45:58;;;;;;;;;;;;;;;24.83;34.01;95333.50;4954262;28;7919;-62
2022/03/22 01:48:25;;;;;;;;;;;;;;;24.82;33.82;95329.25;4964226;28;7281;-62
2022/03/22 01:50:51;;;;;;;;;;;;;;;24.83;33.70;95336.25;4953290;28;7387;-62
2022/03/22 01:53:20;;;;;;;;;;;;;;;24.83;34.01;95328.78;4953445;28;7263;-62
2022/03/22 01:55:46;;;;;;;;;;;;;;;24.81;33.95;95325.00;4954347;28;7459;-62
2022/03/22 01:58:17;;;;;;;;;;;;;;;24.82;33.80;95323.72;4954109;28;9465;-62
2022/03/22 02:00:44;;;;;;;;;;;;;;;24.80;33.34;95315.97;4968009;28;9503;-62
2022/03/22 02:06:01;;;;;;;;;;;;;;;24.81;33.88;95320.25;4966549;28;7347;-62
2022/03/22 02:08:29;;;;;;;;;;;;;;;24.81;33.79;95327.75;4938208;28;7753;-62
2022/03/22 02:10:59;;;;;;;;;;;;;;;24.79;33.90;95319.22;4955381;28;9378;-62
2022/03/22 02:13:27;;;;;;;;;;;;;;;24.81;33.36;95322.25;4950204;28;9127;-62
2022/03/22 02:15:57;;;;;;;;;;;;;;;24.79;33.44;95321.97;4962831;28;7226;-62
2022/03/22 02:18:28;;;;;;;;;;;;;;;24.79;33.42;95328.22;4953813;28;9103;-62
2022/03/22 02:21:01;;;;;;;;;;;;;;;24.79;33.32;95327.47;4953407;28;8771;-62
2022/03/22 02:23:35;;;;;;;;;;;;;;;24.77;33.75;95321.69;4956318;28;9772;-62
2022/03/22 02:26:02;;;;;;;;;;;;;;;24.77;34.09;95324.44;4971190;28;7034;-62
2022/03/22 02:28:43;;;;;;;;;;;;;;;24.77;33.83;95316.19;4928503;29;9488;-62
2022/03/22 02:31:10;;;;;;;;;;;;;;;24.77;33.76;95316.19;4968712;28;8145;-62
2022/03/22 02:33:41;;;;;;;;;;;;;;;24.77;33.74;95316.97;4953159;28;7260;-62
2022/03/22 02:36:09;;;;;;;;;;;;;;;24.77;33.48;95313.44;4953350;28;7327;-62
2022/03/22 02:38:35;;;;;;;;;;;;;;;24.79;33.43;95327.47;4945907;28;9661;-62
2022/03/22 02:41:02;;;;;;;;;;;;;;;24.78;33.60;95325.94;4968930;28;6852;-62
2022/03/22 02:43:28;;;;;;;;;;;;;;;24.77;33.76;95322.47;4947367;28;7486;-62
2022/03/22 02:45:54;;;;;;;;;;;;;;;24.74;33.86;95317.88;4955237;28;7219;-62
2022/03/22 02:48:27;;;;;;;;;;;;;;;24.74;33.71;95309.63;4970369;28;9825;-63
2022/03/22 02:50:53;;;;;;;;;;;;;;;24.77;33.53;95318.94;4955779;28;8261;-63
2022/03/22 02:53:19;;;;;;;;;;;;;;;24.76;33.46;95311.91;4972710;28;9033;-62
2022/03/22 02:55:44;;;;;;;;;;;;;;;24.76;33.58;95315.44;4953038;28;9044;-63
2022/03/22 02:58:16;;;;;;;;;;;;;;;24.76;33.58;95326.44;4954838;28;7024;-62
2022/03/22 03:00:45;;;;;;;;;;;;;;;24.73;33.45;95328.13;4954871;28;7120;-62
2022/03/22 03:03:22;;;;;;;;;;;;;;;24.75;32.94;95329.69;4956775;28;9536;-62
2022/03/22 03:05:58;;;;;;;;;;;;;;;24.74;33.83;95331.63;4957000;28;7480;-62
2022/03/22 03:08:31;;;;;;;;;;;;;;;24.71;33.93;95336.09;4950675;28;9743;-63
2022/03/22 03:11:03;;;;;;;;;;;;;;;24.75;33.60;95337.94;4965693;28;7382;-62
2022/03/22 03:14:38;;;;;;;;;;;;;;;24.75;33.09;95338.66;4958127;28;7124;-62
2022/03/22 03:16:16;;;;;;;;;;;;;;;24.73;33.30;95341.13;4969833;28;7268;-62
2022/03/22 03:18:43;;;;;;;;;;;;;;;24.74;33.57;95350.91;4960963;28;9037;-62
2022/03/22 03:21:09;;;;;;;;;;;;;;;24.75;33.71;95348.94;4954964;28;9188;-62
2022/03/22 03:23:35;;;;;;;;;;;;;;;24.73;33.84;95348.63;4961124;28;7040;-62
2022/03/22 03:26:01;;;;;;;;;;;;;;;24.72;33.46;95353.38;4955134;28;9173;-62
2022/03/22 03:28:27;;;;;;;;;;;;;;;24.71;33.52;95358.13;4965719;28;7245;-62
2022/03/22 03:30:53;;;;;;;;;;;;;;;24.71;33.64;95357.34;4972226;28;7158;-49
2022/03/22 03:33:19;;;;;;;;;;;;;;;24.71;33.71;95354.59;4962547;28;9241;-49
2022/03/22 03:35:45;;;;;;;;;;;;;;;24.71;33.39;95360.09;4970970;28;7846;-49
2022/03/22 03:38:11;;;;;;;;;;;;;;;24.68;33.38;95356.31;4961538;28;9074;-51
2022/03/22 03:43:21;;;;;;;;;;;;;;;24.65;33.57;95360.03;4962172;28;9262;-49
2022/03/22 03:48:34;;;;;;;;;;;;;;;24.66;33.57;95367.03;4970976;28;9436;-48
2022/03/22 03:51:00;;;;;;;;;;;;;;;24.67;33.67;95367.81;4960973;28;7371;-49
2022/03/22 03:53:26;;;;;;;;;;;;;;;24.66;33.66;95366.31;4955022;28;9050;-50
2022/03/22 03:55:52;;;;;;;;;;;;;;;24.66;33.11;95372.53;4955558;28;7137;-48
2022/03/22 03:58:18;;;;;;;;;;;;;;;24.65;33.21;95368.28;4951918;28;8810;-49
2022/03/22 04:00:44;;;;;;;;;;;;;;;24.65;32.94;95367.53;4952246;28;7449;-48
2022/03/22 04:03:10;;;;;;;;;;;;;;;24.64;33.57;95369.53;4953411;28;9021;-50
2022/03/22 04:05:38;;;;;;;;;;;;;;;24.64;33.56;95363.28;4962949;28;9123;-48
2022/03/22 04:08:04;;;;;;;;;;;;;;;24.64;33.51;95369.53;4970758;28;9771;-52
2022/03/22 04:10:34;;;;;;;;;;;;;;;24.64;33.60;95375.03;4962701;28;7013;-49
2022/03/22 04:13:01;;;;;;;;;;;;;;;24.65;33.32;95381.28;4954027;28;7234;-52
2022/03/22 04:15:29;;;;;;;;;;;;;;;24.64;33.34;95380.53;4946865;28;7660;-52
2022/03/22 04:17:59;;;;;;;;;;;;;;;24.63;33.51;95379.03;4970476;28;7100;-48
2022/03/22 04:20:30;;;;;;;;;;;;;;;24.63;33.28;95379.03;4961335;28;8978;-50
2022/03/22 04:23:00;;;;;;;;;;;;;;;24.63;33.03;95381.78;4958378;28;7286;-49
2022/03/22 04:25:29;;;;;;;;;;;;;;;24.63;33.40;95386.50;4953757;28;9085;-51
2022/03/22 04:33:26;;;;;;;;;;;;;;;24.63;33.40;95389.25;4969959;28;7267;-47
2022/03/22 04:35:51;;;;;;;;;;;;;;;24.61;33.03;95389.75;4954136;28;9253;-48
2022/03/22 04:38:22;;;;;;;;;;;;;;;24.59;33.30;95389.47;4953781;28;9167;-49
2022/03/22 04:40:50;;;;;;;;;;;;;;;24.61;33.16;95389.00;4957841;28;9205;-51
2022/03/22 04:43:18;;;;;;;;;;;;;;;24.60;33.32;95393.72;4971730;28;9051;-48
2022/03/22 04:45:44;;;;;;;;;;;;;;;24.60;33.05;95388.22;4956144;28;9289;-51
2022/03/22 04:48:10;;;;;;;;;;;;;;;24.60;33.06;95384.72;4956278;28;8849;-49
2022/03/22 04:50:36;;;;;;;;;;;;;;;24.59;33.67;95383.22;4954056;28;7241;-50
2022/03/22 04:58:33;;;;;;;;;;;;;;;24.58;33.47;95393.44;4964707;28;9211;-50
2022/03/22 05:00:59;;;;;;;;;;;;;;;24.57;32.99;95396.69;4953119;28;9440;-50
2022/03/22 05:03:25;;;;;;;;;;;;;;;24.55;32.94;95402.69;4969603;28;7002;-48
2022/03/22 05:08:40;;;;;;;;;;;;;;;24.50;32.62;95392.34;4971071;28;7614;-48
2022/03/22 05:11:07;;;;;;;;;;;;;;;24.50;32.91;95392.34;4955353;28;8963;-49
2022/03/22 05:13:42;;;;;;;;;;;;;;;24.48;32.75;95400.31;4973951;28;7089;-49
2022/03/22 05:16:31;;;;;;;;;;;;;;;24.48;32.72;95400.31;4956920;28;7288;-48
2022/03/22 05:19:00;;;;;;;;;;;;;;;24.47;33.18;95395.28;4954816;28;7633;-49
2022/03/22 05:21:26;;;;;;;;;;;;;;;24.45;32.88;95393.03;4956145;28;7001;-48
2022/03/22 05:23:56;;;;;;;;;;;;;;;24.47;32.80;95398.03;4963727;28;7279;-50
2022/03/22 05:26:36;;;;;;;;;;;;;;;24.49;33.08;95398.34;4955308;28;7249;-48
2022/03/22 05:29:04;;;;;;;;;;;;;;;24.48;33.26;95403.06;4968996;28;9147;-50
2022/03/22 05:31:34;;;;;;;;;;;;;;;24.45;33.17;95395.78;4954772;28;7357;-47
2022/03/22 05:34:00;;;;;;;;;;;;;;;24.48;32.99;95405.81;4955854;28;9481;-50
2022/03/22 05:36:27;;;;;;;;;;;;;;;24.48;32.62;95405.81;4954695;28;7402;-47
2022/03/22 05:38:54;;;;;;;;;;;;;;;24.46;33.48;95411.06;4967353;28;7280;-51
2022/03/22 05:41:23;;;;;;;;;;;;;;;24.45;33.24;95406.00;4938801;28;9020;-48
2022/03/22 05:43:49;;;;;;;;;;;;;;;24.47;33.05;95409.03;4952829;28;8742;-50
2022/03/22 05:46:17;;;;;;;;;;;;;;;24.47;32.65;95403.53;4953345;28;6851;-49
2022/03/22 05:48:48;;;;;;;;;;;;;;;24.46;32.54;95411.06;4951865;28;9046;-48
2022/03/22 05:51:17;;;;;;;;;;;;;;;24.42;32.34;95407.75;4947365;28;9153;-48
2022/03/22 05:53:44;;;;;;;;;;;;;;;24.44;32.70;95415.50;4961188;28;9772;-47
2022/03/22 05:56:11;;;;;;;;;;;;;;;24.45;32.48;95414.25;4969457;28;9469;-50
2022/03/22 05:58:37;;;;;;;;;;;;;;;24.44;32.79;95416.28;4954541;28;9063;-48
2022/03/22 06:01:06;;;;;;;;;;;;;;;24.46;32.06;95421.28;4955283;28;8837;-46
2022/03/22 06:03:34;;;;;;;;;;;;;;;24.43;31.87;95424.97;4954531;28;7373;-49
2022/03/22 06:06:00;;;;;;;;;;;;;;;24.44;31.83;95421.00;4956638;28;9058;-48
2022/03/22 06:08:29;;;;;;;;;;;;;;;24.43;32.09;95423.00;4956682;28;8718;-46
2022/03/22 06:10:56;;;;;;;;;;;;;;;24.43;31.84;95420.25;4961281;28;9382;-48
2022/03/22 06:13:23;;;;;;;;;;;;;;;24.44;31.79;95421.00;4955257;28;9285;-51
2022/03/22 06:15:52;;;;;;;;;;;;;;;24.44;31.93;95426.50;4951806;28;9382;-48
2022/03/22 06:18:22;;;;;;;;;;;;;;;24.44;31.90;95421.00;4953172;28;8674;-47
2022/03/22 06:20:48;;;;;;;;;;;;;;;24.45;32.22;95422.50;4958660;28;8770;-48
2022/03/22 06:23:20;;;;;;;;;;;;;;;24.43;32.11;95420.25;4946998;28;7139;-47
2022/03/22 06:25:46;;;;;;;;;;;;;;;24.43;31.66;95423.00;4946294;28;9474;-49
2022/03/22 06:28:35;;;;;;;;;;;;;;;24.44;31.79;95421.00;4951093;28;8726;-48
2022/03/22 06:31:01;;;;;;;;;;;;;;;24.43;31.54;95422.22;4958689;28;8285;-50
2022/03/22 06:33:27;;;;;;;;;;;;;;;24.42;32.10;95424.25;4941875;28;7239;-51
2022/03/22 06:35:53;;;;;;;;;;;;;;;24.41;32.30;95428.22;4959722;28;9395;-49
2022/03/22 06:38:21;;;;;;;;;;;;;;;24.43;32.62;95423.00;4968461;28;9271;-49
2022/03/22 06:41:00;;;;;;;;;;;;;;;24.40;32.40;95426.69;4955740;28;9404;-50
2022/03/22 06:43:36;;;;;;;;;;;;;;;24.40;32.54;95426.69;4975710;28;7000;-49
2022/03/22 06:46:02;;;;;;;;;;;;;;;24.41;32.72;95427.47;4971934;28;7087;-51
2022/03/22 06:48:28;;;;;;;;;;;;;;;24.41;32.75;95428.22;4957874;28;7633;-49
2022/03/22 06:50:54;;;;;;;;;;;;;;;24.41;33.35;95430.97;4962823;28;7212;-50
2022/03/22 06:53:22;;;;;;;;;;;;;;;24.43;33.63;95433.22;4956312;28;7279;-52
2022/03/22 06:55:50;;;;;;;;;;;;;;;24.42;32.84;95440.75;4969182;28;7058;-50
2022/03/22 06:58:30;;;;;;;;;;;;;;;24.42;31.87;95438.00;4974086;28;7208;-48
2022/03/22 07:00:59;;;;;;;;;;;;;;;24.39;31.80;95436.19;4944763;28;9012;-48
2022/03/22 07:03:37;;;;;;;;;;;;;;;24.38;31.96;95445.66;4959432;28;7139;-47
2022/03/22 07:06:06;;;;;;;;;;;;;;;24.34;32.06;95442.34;4963739;28;7709;-51
2022/03/22 07:08:35;;;;;;;;;;;;;;;24.37;32.40;95452.41;4969781;28;9323;-52
2022/03/22 07:13:45;;;;;;;;;;;;;;;24.34;32.38;95447.09;4971715;28;9608;-49
2022/03/22 07:16:14;;;;;;;;;;;;;;;24.31;32.32;95446.06;4971213;28;8715;-49
2022/03/22 07:18:40;;;;;;;;;;;;;;;24.37;32.35;95444.16;4966309;28;7066;-48
2022/03/22 07:21:11;;;;;;;;;;;;;;;24.37;32.00;95449.66;4960121;28;7647;-48
2022/03/22 07:23:38;;;;;;;;;;;;;;;24.37;32.80;95446.91;4971408;28;9442;-48
2022/03/22 07:26:10;;;;;;;;;;;;;;;24.36;33.33;95442.63;4953223;28;8745;-51
2022/03/22 07:28:44;;;;;;;;;;;;;;;24.37;32.75;95449.66;4967157;28;9013;-46
2022/03/22 07:31:19;;;;;;;;;;;;;;;24.38;32.99;95447.69;4958285;28;7263;-47
2022/03/22 07:33:53;;;;;;;;;;;;;;;24.38;32.71;95451.16;4967025;28;9218;-49
2022/03/22 07:36:25;;;;;;;;;;;;;;;24.38;32.76;95451.16;4962797;28;7040;-48
2022/03/22 07:39:00;;;;;;;;;;;;;;;24.38;32.75;95450.44;4958303;28;7292;-49
2022/03/22 07:41:29;;;;;;;;;;;;;;;24.39;33.08;95458.19;4955387;28;9181;-47
2022/03/22 07:44:06;;;;;;;;;;;;;;;24.39;32.98;95463.69;4962401;28;9149;-50
2022/03/22 07:47:01;;;;;;;;;;;;;;;24.39;33.15;95462.94;4957450;28;9162;-47
2022/03/22 07:54:59;;;;;;;;;;;;;;;24.37;33.23;95460.66;4912371;29;10190;-50
2022/03/22 07:57:26;;;;;;;;;;;;;;;24.40;33.21;95467.94;4902863;29;7066;-52
2022/03/22 07:59:52;;;;;;;;;;;;;;;24.41;33.28;95469.47;4878342;29;7285;-53
2022/03/22 08:02:17;;;;;;;;;;;;;;;24.43;33.55;95464.25;4907878;29;9446;-48
2022/03/22 08:04:44;;;;;;;;;;;;;;;24.44;33.50;95468.53;4895573;29;9339;-51
2022/03/22 08:07:10;;;;;;;;;;;;;;;24.46;33.42;95470.78;4895555;29;7353;-47
2022/03/22 08:09:36;;;;;;;;;;;;;;;24.45;33.22;95474.75;4909140;29;9278;-48
2022/03/22 08:12:03;;;;;;;;;;;;;;;24.45;33.41;95467.28;4905278;29;7223;-51
2022/03/22 08:14:29;;;;;;;;;;;;;;;24.44;33.34;95471.28;4894479;29;9947;-50
2022/03/22 08:17:03;;;;;;;;;;;;;;;24.45;33.34;95467.28;4899737;29;7059;-48
2022/03/22 08:19:29;;;;;;;;;;;;;;;24.45;33.05;95461.78;4903719;29;7263;-49
2022/03/22 08:21:56;;;;;;;;;;;;;;;24.46;33.13;95468.81;4911056;29;8670;-49
2022/03/22 08:24:22;;;;;;;;;;;;;;;24.44;33.20;95473.25;4899363;29;7197;-51
2022/03/22 08:26:48;;;;;;;;;;;;;;;24.43;33.41;95458.75;4951710;28;9027;-49
2022/03/22 08:29:21;;;;;;;;;;;;;;;24.47;32.99;95464.81;4957012;28;7096;-50
2022/03/22 08:32:09;;;;;;;;;;;;;;;24.44;33.41;95454.78;4946854;28;6983;-46
2022/03/22 08:34:51;;;;;;;;;;;;;;;24.50;33.01;95463.09;4965831;28;7604;-46
2022/03/22 08:37:17;;;;;;;;;;;;;;;24.49;33.10;95473.34;4958470;28;8778;-49
2022/03/22 08:39:43;;;;;;;;;;;;;;;24.51;32.91;95461.88;4958727;28;9239;-51
2022/03/22 08:42:09;;;;;;;;;;;;;;;24.47;32.73;95464.81;4953241;28;7199;-49
2022/03/22 08:44:35;;;;;;;;;;;;;;;24.47;32.69;95453.81;4946197;28;9044;-48
2022/03/22 08:47:02;;;;;;;;;;;;;;;24.48;32.88;95460.06;4964594;28;7039;-49
2022/03/22 08:49:28;;;;;;;;;;;;;;;24.49;32.62;95456.09;4958680;28;9082;-50
2022/03/22 08:51:57;;;;;;;;;;;;;;;24.49;32.62;95451.31;4950859;28;9171;-51
2022/03/22 08:54:23;;;;;;;;;;;;;;;24.50;33.09;95458.34;4952207;28;7401;-48
2022/03/22 08:56:49;;;;;;;;;;;;;;;24.49;33.18;95445.09;4955531;28;9487;-47
2022/03/22 08:59:17;;;;;;;;;;;;;;;24.51;32.53;95446.09;4963461;28;8739;-50
2022/03/22 09:02:03;;;;;;;;;;;;;;;24.49;33.24;95445.09;4959327;28;9012;-49
2022/03/22 09:07:39;;;;;;;;;;;;;;;24.50;32.92;95441.09;4974026;28;8765;-46
2022/03/22 09:10:14;;;;;;;;;;;;;;;24.52;32.89;95450.38;4960903;28;6992;-47
2022/03/22 09:12:42;;;;;;;;;;;;;;;24.51;32.69;95443.34;4972376;28;7337;-48
2022/03/22 09:15:11;;;;;;;;;;;;;;;24.50;33.03;95444.59;4972281;28;8590;-46
2022/03/22 09:17:40;;;;;;;;;;;;;;;24.51;33.04;95446.09;4971888;28;7199;-49
2022/03/22 09:20:33;;;;;;;;;;;;;;;24.52;32.84;95449.63;4955301;28;7058;-47
2022/03/22 09:23:02;;;;;;;;;;;;;;;24.52;33.08;95450.38;4977500;28;7249;-49
2022/03/22 09:25:36;;;;;;;;;;;;;;;24.53;33.30;95446.38;4956525;28;7310;-48
2022/03/22 09:28:20;;;;;;;;;;;;;;;24.56;33.50;95439.94;4956732;28;8350;-52
2022/03/22 09:30:49;;;;;;;;;;;;;;;24.54;32.81;95439.66;4955102;28;9050;-51
2022/03/22 09:33:16;;;;;;;;;;;;;;;24.54;33.44;95442.41;4948895;28;9587;-48
2022/03/22 09:35:44;;;;;;;;;;;;;;;24.54;33.42;95444.41;4959800;28;9320;-51
2022/03/22 09:38:10;;;;;;;;;;;;;;;24.56;33.03;95445.44;4953212;28;8728;-49
2022/03/22 09:40:36;;;;;;;;;;;;;;;24.56;33.05;95439.94;4955681;28;7237;-51
2022/03/22 09:43:04;;;;;;;;;;;;;;;24.54;32.96;95434.16;4940830;28;9084;-52
2022/03/22 09:45:33;;;;;;;;;;;;;;;24.55;33.60;95448.69;4953370;28;9318;-50
2022/03/22 09:47:59;;;;;;;;;;;;;;;24.54;33.58;95439.66;4950494;28;9494;-52
2022/03/22 09:53:15;;;;;;;;;;;;;;;24.54;33.44;95444.41;4967430;28;7134;-52
2022/03/22 09:55:41;;;;;;;;;;;;;;;24.58;33.08;95436.69;4969256;28;9102;-53
2022/03/22 09:58:17;;;;;;;;;;;;;;;24.56;33.59;95434.44;4969115;28;9110;-49
2022/03/22 10:00:46;;;;;;;;;;;;;;;24.58;33.42;95431.19;4972738;28;7458;-50
2022/03/22 10:03:25;;;;;;;;;;;;;;;24.58;32.70;95433.94;4957947;28;9363;-51
2022/03/22 10:05:58;;;;;;;;;;;;;;;24.59;33.41;95438.22;4957108;28;6998;-51
2022/03/22 10:08:34;;;;;;;;;;;;;;;24.58;33.13;95426.47;4945802;28;7237;-48
2022/03/22 10:11:04;;;;;;;;;;;;;;;24.59;33.51;95422.50;4953351;28;7273;-52
2022/03/22 10:13:35;;;;;;;;;;;;;;;24.61;33.90;95425.50;4963284;28;7242;-50
2022/03/22 10:16:04;;;;;;;;;;;;;;;24.63;33.17;95423.03;4957814;28;8496;-48
2022/03/22 10:18:37;;;;;;;;;;;;;;;24.59;33.39;95416.22;4954356;28;7075;-48
2022/03/22 10:21:04;;;;;;;;;;;;;;;24.63;33.72;95423.03;4951312;28;8822;-53
2022/03/22 10:23:31;;;;;;;;;;;;;;;24.65;33.45;95423.31;4967908;28;7035;-49
2022/03/22 10:26:07;;;;;;;;;;;;;;;24.64;33.26;95416.28;4960887;28;7017;-50
2022/03/22 10:28:35;;;;;;;;;;;;;;;24.67;33.86;95414.56;4946509;28;9510;-50
2022/03/22 10:31:04;;;;;;;;;;;;;;;24.66;33.33;95405.56;4953602;28;9155;-51
2022/03/22 10:33:32;;;;;;;;;;;;;;;24.69;33.56;95412.09;4954648;28;7609;-52
2022/03/22 10:36:00;;;;;;;;;;;;;;;24.67;33.48;95401.59;4964348;28;9578;-50
2022/03/22 10:38:29;;;;;;;;;;;;;;;24.72;33.75;95408.41;4950594;28;8741;-49
2022/03/22 10:40:57;;;;;;;;;;;;;;;24.72;33.58;95402.91;4948738;28;7334;-48
2022/03/22 10:44:05;;;;;;;;;;;;;;;24.73;33.51;95395.41;4952499;28;9302;-50
2022/03/22 10:46:32;;;;;;;;;;;;;;;24.73;33.83;95396.91;4926202;29;7184;-49
2022/03/22 10:49:10;;;;;;;;;;;;;;;24.73;33.96;95392.66;4931265;29;9086;-50
2022/03/22 10:51:44;;;;;;;;;;;;;;;24.77;34.40;95398.72;4921406;29;7347;-51
2022/03/22 10:54:12;;;;;;;;;;;;;;;24.74;34.09;95392.16;4929140;29;7297;-52
2022/03/22 10:56:47;;;;;;;;;;;;;;;24.79;33.65;95399.00;4939187;29;7009;-53
2022/03/22 10:59:16;;;;;;;;;;;;;;;24.79;34.28;95397.03;4935131;29;7025;-51
2022/03/22 11:02:01;;;;;;;;;;;;;;;24.81;33.83;95399.28;4932608;29;9117;-48
2022/03/22 11:04:32;;;;;;;;;;;;;;;24.80;33.73;95398.50;4937131;29;9042;-48
2022/03/22 11:07:09;;;;;;;;;;;;;;;24.82;33.81;95400.78;4921226;29;9211;-50
2022/03/22 11:09:47;;;;;;;;;;;;;;;24.84;34.06;95392.81;4930891;29;9492;-51
2022/03/22 11:12:19;;;;;;;;;;;;;;;24.84;34.11;95410.06;4927024;29;9460;-50
2022/03/22 11:14:50;;;;;;;;;;;;;;;24.86;33.32;95402.09;4920386;29;9502;-51
2022/03/22 11:17:34;;;;;;;;;;;;;;;24.90;33.92;95401.91;4920200;29;9188;-51
2022/03/22 11:20:04;;;;;;;;;;;;;;;24.89;33.92;95397.63;4927947;29;9140;-48
2022/03/22 11:22:33;;;;;;;;;;;;;;;24.91;34.54;95397.91;4957033;28;9822;-50
2022/03/22 11:25:09;;;;;;;;;;;;;;;24.91;34.46;95397.91;4973298;28;9074;-50
2022/03/22 11:28:11;;;;;;;;;;;;;;;24.92;33.93;95399.41;4951424;28;8744;-49
2022/03/22 11:30:41;;;;;;;;;;;;;;;24.93;34.14;95396.19;4883706;29;9222;-48
2022/03/22 11:36:28;;;;;;;;;;;;;;;24.98;34.17;95391.97;4883310;29;9240;-51
2022/03/22 11:38:57;;;;;;;;;;;;;;;24.98;34.48;95381.72;4877884;29;7257;-51
2022/03/22 11:44:27;;;;;;;;;;;;;;;25.00;33.91;95395.00;4876792;29;9107;-51
2022/03/22 11:47:14;;;;;;;;;;;;;;;25.02;34.95;95387.03;4864277;29;9505;-49
2022/03/22 11:50:04;;;;;;;;;;;;;;;25.02;34.01;95376.78;4875797;29;7611;-50
2022/03/22 11:52:33;;;;;;;;;;;;;;;25.04;34.45;95385.31;4876526;29;9337;-52
2022/03/22 11:55:22;;;;;;;;;;;;;;;25.06;34.00;95377.31;4879631;29;9083;-48
2022/03/22 11:58:08;;;;;;;;;;;;;;;25.08;34.25;95385.09;4887891;29;7601;-51
2022/03/22 12:01:00;;;;;;;;;;;;;;;25.07;34.52;95376.09;4882212;29;8864;-52
2022/03/22 12:03:52;;;;;;;;;;;;;;;25.09;34.15;95375.59;4874972;29;6865;-52
2022/03/22 12:06:18;;;;;;;;;;;;;;;25.08;33.88;95377.59;4917592;28;8993;-53
2022/03/22 12:08:44;;;;;;;;;;;;;;;25.12;33.74;95380.16;4942821;28;9100;-49
2022/03/22 12:11:16;;;;;;;;;;;;;;;25.12;33.74;95369.13;4970852;28;7368;-51
2022/03/22 12:13:54;;;;;;;;;;;;;;;25.12;33.22;95374.63;4972362;28;7065;-52
2022/03/22 12:16:26;;;;;;;;;;;;;;;25.14;33.78;95370.13;4952910;28;7264;-51
2022/03/22 12:18:53;;;;;;;;;;;;;;;25.14;33.36;95367.38;4963874;28;9417;-52
2022/03/22 12:21:21;;;;;;;;;;;;;;;25.15;33.07;95368.91;4959981;28;9387;-53
2022/03/22 12:23:48;;;;;;;;;;;;;;;25.17;33.09;95365.66;4949257;28;7110;-52
2022/03/22 12:26:15;;;;;;;;;;;;;;;25.13;33.81;95356.88;4946025;28;7068;-53
2022/03/22 12:28:54;;;;;;;;;;;;;;;25.18;32.88;95361.69;4951993;28;7207;-53
2022/03/22 12:31:21;;;;;;;;;;;;;;;25.20;33.21;95364.69;4948110;28;7084;-51
2022/03/22 12:33:55;;;;;;;;;;;;;;;25.21;33.34;95349.69;4966489;28;7409;-53
2022/03/22 12:36:22;;;;;;;;;;;;;;;25.22;33.27;95351.22;4953214;28;7055;-53
2022/03/22 12:38:53;;;;;;;;;;;;;;;25.23;33.19;95347.19;4974341;28;7382;-52
2022/03/22 12:41:19;;;;;;;;;;;;;;;25.24;33.58;95345.97;4974163;28;9119;-53
2022/03/22 12:43:46;;;;;;;;;;;;;;;25.25;33.50;95344.75;4973069;28;7062;-52
2022/03/22 12:46:21;;;;;;;;;;;;;;;25.26;33.47;95333.22;4956179;28;8981;-53
2022/03/22 12:48:52;;;;;;;;;;;;;;;25.27;33.15;95334.72;4941076;28;7175;-51
2022/03/22 12:51:18;;;;;;;;;;;;;;;25.29;33.88;95340.50;4957227;28;7322;-50
2022/03/22 12:53:44;;;;;;;;;;;;;;;25.32;33.25;95331.28;4970322;28;9501;-52
2022/03/22 12:56:15;;;;;;;;;;;;;;;25.34;34.24;95322.53;4971490;28;7268;-53
2022/03/22 12:58:41;;;;;;;;;;;;;;;25.35;33.15;95326.81;4958140;28;8960;-50
2022/03/22 13:01:17;;;;;;;;;;;;;;;25.35;33.57;95321.31;4947237;28;6982;-49
2022/03/22 13:03:53;;;;;;;;;;;;;;;25.38;33.06;95321.06;4955141;28;7497;-53
2022/03/22 13:06:19;;;;;;;;;;;;;;;25.36;33.27;95312.53;4952257;28;9395;-51
2022/03/22 13:11:52;;;;;;;;;;;;;;;25.37;33.13;95313.31;4972674;28;8711;-53
2022/03/22 13:17:03;;;;;;;;;;;;;;;25.37;33.54;95314.06;4971003;28;9481;-52
2022/03/22 13:19:32;;;;;;;;;;;;;;;25.36;33.85;95309.78;4967560;28;9537;-52
2022/03/22 13:21:59;;;;;;;;;;;;;;;25.36;33.93;95306.28;4950541;28;9083;-51
2022/03/22 13:24:28;;;;;;;;;;;;;;;25.38;33.41;95309.31;4955398;28;9126;-51
2022/03/22 13:27:02;;;;;;;;;;;;;;;25.37;33.10;95305.81;4951863;28;8721;-50
2022/03/22 13:29:40;;;;;;;;;;;;;;;25.38;33.50;95314.81;4962228;28;8604;-54
2022/03/22 13:32:09;;;;;;;;;;;;;;;25.35;34.13;95302.78;4957628;28;9458;-51
2022/03/22 13:34:42;;;;;;;;;;;;;;;25.37;34.19;95296.78;4967835;28;7098;-53
2022/03/22 13:37:19;;;;;;;;;;;;;;;25.41;34.28;95303.59;4948685;28;9208;-52
2022/03/22 13:39:50;;;;;;;;;;;;;;;25.40;33.68;95296.56;4958955;28;8765;-53
2022/03/22 13:42:21;;;;;;;;;;;;;;;25.46;33.78;95287.63;4968127;28;7327;-52
2022/03/22 13:45:00;;;;;;;;;;;;;;;25.50;33.67;95294.41;4958885;28;9451;-52
2022/03/22 13:47:33;;;;;;;;;;;;;;;25.52;34.16;95283.66;4969983;28;7010;-53
2022/03/22 13:50:19;;;;;;;;;;;;;;;25.55;34.27;95273.66;4964050;28;9102;-53
2022/03/22 13:52:57;;;;;;;;;;;;;;;25.55;34.12;95276.44;4958066;28;7680;-53
2022/03/22 13:55:29;;;;;;;;;;;;;;;25.58;33.33;95276.19;4970699;28;9136;-52
2022/03/22 13:58:08;;;;;;;;;;;;;;;25.61;33.13;95272.47;4951276;28;9236;-53
2022/03/22 14:00:35;;;;;;;;;;;;;;;25.63;33.87;95269.22;4955722;28;7382;-53
2022/03/22 14:03:02;;;;;;;;;;;;;;;25.64;33.33;95265.22;4968784;28;9326;-52